Bay Saint Louis, Mississippi
Current Conditions -  °F | °C
As of 8:50 PM on Thursday 30 Oct 2014 (Local Time) from KHSA Reporting Station
Clear Clear  
Wind Chill: 52°   Ceiling: Unl
Heat Index: 52°   Visibility: 10mi
Dew Point: 45°   Wind: 0mph
Humidity: 76%   Direction: NA
Pressure: 30.03"   Gusts: NA
Location:  30.31°N, 89.33°W
Report Text: KHSA 310150Z 00000KT 10SM CLR 11/07 A3003
Loading
Personal Weather Stations






























Interactive Weather Map
Tropical Storm Tracking
New forecast layout! Learn more

10-Day Weather Forecast

Advertisements
Track Severe Weather on mobile